This is the latest recevied weather packets stored in our database for station/object OK1UOJ. If no packets are shown the sender has not sent any weather packets the latest 1 day(s).
| Time | Temp. | Humidity | Pressure | Rain* | Wind** | Luminosity | Snow |
|---|---|---|---|---|---|---|---|
| 1836274661 | 14.44° C | 10% | - | - | 2.68 m/s, 129° | - | - |
| 1836274656 | 14.44° C | 10% | - | - | 2.68 m/s, 129° | - | - |
| 1836274466 | 14.44° C | 10% | - | - | 2.68 m/s, 138° | - | - |
| 1836274466 | 14.44° C | 10% | - | - | 2.68 m/s, 138° | - | - |
| 1836274461 | 14.44° C | 10% | - | - | 2.68 m/s, 138° | - | - |
| 1836274383 | 14.44° C | 10% | - | - | 2.68 m/s, 132° | - | - |
| 1836274379 | 14.44° C | 10% | - | - | 2.68 m/s, 132° | - | - |
| 1836274188 | 14.44° C | 10% | - | - | 2.68 m/s, 129° | - | - |
| 1836274184 | 14.44° C | 10% | - | - | 2.68 m/s, 129° | - | - |
| 1836274106 | 14.44° C | 10% | - | - | 2.24 m/s, 135° | - | - |
| 1836274101 | 14.44° C | 10% | - | - | 2.24 m/s, 135° | - | - |
| 1778023565 | 12.22° C | 10% | - | - | 1.34 m/s, 135° | - | - |
| 1778023010 | 12.22° C | 10% | - | - | 1.34 m/s, 135° | - | - |
| 1778022460 | 13.33° C | 10% | - | - | 0.89 m/s, 132° | - | - |
| 1778022455 | 13.33° C | 10% | - | - | 0.89 m/s, 132° | - | - |
| 1778021905 | 13.89° C | 10% | - | - | 0.89 m/s, 135° | - | - |
| 1778021900 | 13.89° C | 10% | - | - | 0.89 m/s, 135° | - | - |
| 1778021628 | 13.89° C | 10% | - | - | 0.89 m/s, 132° | - | - |
| 1778021627 | 13.89° C | 10% | - | - | 0.89 m/s, 132° | - | - |
| 1778021624 | 13.89° C | 10% | - | - | 0.89 m/s, 132° | - | - |
| 1778021067 | 13.89° C | 10% | - | - | 0 m/s | - | - |
| 1778020795 | 13.89° C | 88% | - | - | 0.45 m/s, 233° | - | - |
| 1778020790 | 13.89° C | 10% | - | - | 0.45 m/s, 233° | - | - |
| 1778020512 | 13.89° C | 10% | - | - | 0.89 m/s, 170° | - | - |
| 1778020235 | 13.89° C | 10% | - | - | 1.79 m/s, 135° | - | - |
* Rain since midnight (hover to see other rain measurements)
** Current wind speed in m/s (hover to see current wind gust speed)